sensor_id;sensor_type;location;lat;lon;timestamp;pressure;altitude;pressure_sealevel;temperature;humidity
70916;BME280;58557;50.982;-3.222;2023-02-10T00:00:23;103015.98;;;-2.24;77.34
70916;BME280;58557;50.982;-3.222;2023-02-10T00:02:49;103017.44;;;-1.09;73.68
70916;BME280;58557;50.982;-3.222;2023-02-10T00:05:15;103023.73;;;-2.24;78.08
70916;BME280;58557;50.982;-3.222;2023-02-10T00:07:40;103026.53;;;-1.14;73.18
70916;BME280;58557;50.982;-3.222;2023-02-10T00:10:06;103027.30;;;-0.64;69.70
70916;BME280;58557;50.982;-3.222;2023-02-10T00:12:31;103030.80;;;0.29;66.50
70916;BME280;58557;50.982;-3.222;2023-02-10T00:14:57;103028.83;;;-0.76;69.65
70916;BME280;58557;50.982;-3.222;2023-02-10T00:17:23;103027.04;;;-0.74;70.07
70916;BME280;58557;50.982;-3.222;2023-02-10T00:19:48;103023.17;;;-0.01;67.09
70916;BME280;58557;50.982;-3.222;2023-02-10T00:22:15;103021.23;;;0.99;61.95
70916;BME280;58557;50.982;-3.222;2023-02-10T00:24:39;103032.79;;;1.33;60.48
70916;BME280;58557;50.982;-3.222;2023-02-10T00:27:05;103040.23;;;0.43;64.50
70916;BME280;58557;50.982;-3.222;2023-02-10T00:29:30;103038.88;;;0.81;62.96
70916;BME280;58557;50.982;-3.222;2023-02-10T00:31:56;103045.27;;;-1.04;68.67
70916;BME280;58557;50.982;-3.222;2023-02-10T00:34:22;103046.28;;;0.05;66.08
70916;BME280;58557;50.982;-3.222;2023-02-10T00:36:49;103044.77;;;-1.23;69.91
70916;BME280;58557;50.982;-3.222;2023-02-10T00:39:14;103048.34;;;-0.65;69.78
70916;BME280;58557;50.982;-3.222;2023-02-10T00:41:39;103054.94;;;-1.95;74.48
70916;BME280;58557;50.982;-3.222;2023-02-10T00:44:05;103050.12;;;-1.19;72.58
70916;BME280;58557;50.982;-3.222;2023-02-10T00:46:30;103044.39;;;-1.09;72.15
70916;BME280;58557;50.982;-3.222;2023-02-10T00:48:56;103041.55;;;-0.76;69.61
70916;BME280;58557;50.982;-3.222;2023-02-10T00:51:21;103039.42;;;-0.02;67.06
70916;BME280;58557;50.982;-3.222;2023-02-10T00:53:47;103044.06;;;-0.37;67.08
70916;BME280;58557;50.982;-3.222;2023-02-10T00:56:13;103044.84;;;0.57;65.11
70916;BME280;58557;50.982;-3.222;2023-02-10T00:58:38;103044.38;;;0.71;62.35
70916;BME280;58557;50.982;-3.222;2023-02-10T01:01:04;103043.70;;;0.86;63.55
70916;BME280;58557;50.982;-3.222;2023-02-10T01:03:29;103042.13;;;0.59;63.29
70916;BME280;58557;50.982;-3.222;2023-02-10T01:05:55;103040.32;;;-0.26;64.40
70916;BME280;58557;50.982;-3.222;2023-02-10T01:08:20;103042.98;;;-0.68;65.75
70916;BME280;58557;50.982;-3.222;2023-02-10T01:10:46;103041.95;;;0.47;64.52
70916;BME280;58557;50.982;-3.222;2023-02-10T01:13:12;103047.29;;;-0.66;65.99
70916;BME280;58557;50.982;-3.222;2023-02-10T01:15:41;103050.11;;;-1.52;72.05
70916;BME280;58557;50.982;-3.222;2023-02-10T01:18:02;103053.60;;;-1.25;71.86
70916;BME280;58557;50.982;-3.222;2023-02-10T01:20:28;103047.43;;;0.44;65.38
70916;BME280;58557;50.982;-3.222;2023-02-10T01:22:54;103044.89;;;1.48;61.61
70916;BME280;58557;50.982;-3.222;2023-02-10T01:25:20;103045.60;;;0.57;63.53
70916;BME280;58557;50.982;-3.222;2023-02-10T01:27:45;103042.27;;;1.59;60.01
70916;BME280;58557;50.982;-3.222;2023-02-10T01:30:11;103040.56;;;1.58;58.72
70916;BME280;58557;50.982;-3.222;2023-02-10T01:32:36;103037.48;;;2.47;56.92
70916;BME280;58557;50.982;-3.222;2023-02-10T01:35:02;103039.51;;;0.28;61.51
70916;BME280;58557;50.982;-3.222;2023-02-10T01:37:28;103030.99;;;2.00;57.94
70916;BME280;58557;50.982;-3.222;2023-02-10T01:39:53;103028.01;;;1.23;58.37
70916;BME280;58557;50.982;-3.222;2023-02-10T01:42:19;103027.56;;;1.33;58.43
70916;BME280;58557;50.982;-3.222;2023-02-10T01:47:10;103038.15;;;0.76;61.63
70916;BME280;58557;50.982;-3.222;2023-02-10T01:49:40;103044.58;;;-0.47;65.11
70916;BME280;58557;50.982;-3.222;2023-02-10T01:52:04;103042.79;;;-0.24;63.35
70916;BME280;58557;50.982;-3.222;2023-02-10T01:54:30;103042.41;;;-0.66;65.29
70916;BME280;58557;50.982;-3.222;2023-02-10T01:56:53;103038.48;;;0.41;64.68
70916;BME280;58557;50.982;-3.222;2023-02-10T01:59:19;103035.38;;;0.28;62.89
70916;BME280;58557;50.982;-3.222;2023-02-10T02:01:44;103036.81;;;0.53;60.97
70916;BME280;58557;50.982;-3.222;2023-02-10T02:04:09;103035.78;;;0.02;64.14
70916;BME280;58557;50.982;-3.222;2023-02-10T02:06:35;103034.34;;;0.01;64.65
70916;BME280;58557;50.982;-3.222;2023-02-10T02:09:01;103027.07;;;1.18;61.88
70916;BME280;58557;50.982;-3.222;2023-02-10T02:11:33;103030.90;;;0.55;65.35
70916;BME280;58557;50.982;-3.222;2023-02-10T02:14:00;103028.02;;;0.12;62.66
70916;BME280;58557;50.982;-3.222;2023-02-10T02:16:27;103025.09;;;1.14;61.25
70916;BME280;58557;50.982;-3.222;2023-02-10T02:18:47;103025.92;;;0.65;63.53
70916;BME280;58557;50.982;-3.222;2023-02-10T02:23:44;103019.96;;;1.00;62.68
70916;BME280;58557;50.982;-3.222;2023-02-10T02:26:23;103027.85;;;-0.33;65.78
70916;BME280;58557;50.982;-3.222;2023-02-10T02:28:32;103027.78;;;-0.96;67.59
70916;BME280;58557;50.982;-3.222;2023-02-10T02:31:13;103030.17;;;-0.96;70.35
70916;BME280;58557;50.982;-3.222;2023-02-10T02:33:18;103029.74;;;-1.68;73.25
70916;BME280;58557;50.982;-3.222;2023-02-10T02:35:44;103028.90;;;-0.99;72.47
70916;BME280;58557;50.982;-3.222;2023-02-10T02:38:06;103022.52;;;0.82;63.95
70916;BME280;58557;50.982;-3.222;2023-02-10T02:40:31;103018.64;;;1.00;60.95
70916;BME280;58557;50.982;-3.222;2023-02-10T02:42:57;103026.00;;;-0.50;63.41
70916;BME280;58557;50.982;-3.222;2023-02-10T02:45:27;103032.94;;;-0.42;65.67
70916;BME280;58557;50.982;-3.222;2023-02-10T02:47:58;103031.54;;;-1.09;69.28
70916;BME280;58557;50.982;-3.222;2023-02-10T02:50:23;103037.69;;;-0.92;69.04
70916;BME280;58557;50.982;-3.222;2023-02-10T02:52:48;103046.10;;;-0.30;65.83
70916;BME280;58557;50.982;-3.222;2023-02-10T02:55:07;103038.86;;;0.95;64.31
70916;BME280;58557;50.982;-3.222;2023-02-10T02:57:36;103033.45;;;0.95;62.08
70916;BME280;58557;50.982;-3.222;2023-02-10T03:00:02;103034.21;;;1.86;57.74
70916;BME280;58557;50.982;-3.222;2023-02-10T03:02:21;103033.65;;;1.58;57.58
70916;BME280;58557;50.982;-3.222;2023-02-10T03:04:46;103030.15;;;1.36;58.72
70916;BME280;58557;50.982;-3.222;2023-02-10T03:07:11;103028.05;;;1.85;57.53
70916;BME280;58557;50.982;-3.222;2023-02-10T03:09:37;103031.85;;;0.10;61.07
70916;BME280;58557;50.982;-3.222;2023-02-10T03:12:02;103027.66;;;-1.15;65.78
70916;BME280;58557;50.982;-3.222;2023-02-10T03:14:28;103026.46;;;-1.76;69.21
70916;BME280;58557;50.982;-3.222;2023-02-10T03:16:53;103026.66;;;-1.14;70.22
70916;BME280;58557;50.982;-3.222;2023-02-10T03:19:19;103025.63;;;-2.67;74.25
70916;BME280;58557;50.982;-3.222;2023-02-10T03:21:44;103023.24;;;-1.99;73.76
70916;BME280;58557;50.982;-3.222;2023-02-10T03:24:10;103024.43;;;-2.47;77.22
70916;BME280;58557;50.982;-3.222;2023-02-10T03:26:35;103022.69;;;-1.75;74.24
70916;BME280;58557;50.982;-3.222;2023-02-10T03:29:01;103022.92;;;-0.28;70.88
70916;BME280;58557;50.982;-3.222;2023-02-10T03:31:26;103017.08;;;1.26;63.00
70916;BME280;58557;50.982;-3.222;2023-02-10T03:33:51;103021.21;;;2.26;56.85
70916;BME280;58557;50.982;-3.222;2023-02-10T03:36:17;103022.89;;;2.73;54.54
70916;BME280;58557;50.982;-3.222;2023-02-10T03:38:43;103018.27;;;2.43;54.32
70916;BME280;58557;50.982;-3.222;2023-02-10T03:41:08;103013.60;;;2.26;54.96
70916;BME280;58557;50.982;-3.222;2023-02-10T03:43:34;103011.28;;;2.75;53.07
70916;BME280;58557;50.982;-3.222;2023-02-10T03:46:00;103012.38;;;-0.86;62.57
70916;BME280;58557;50.982;-3.222;2023-02-10T03:48:25;103009.62;;;-0.21;63.78
70916;BME280;58557;50.982;-3.222;2023-02-10T03:50:50;102996.70;;;0.71;61.71
70916;BME280;58557;50.982;-3.222;2023-02-10T03:53:16;102984.92;;;0.05;61.22
70916;BME280;58557;50.982;-3.222;2023-02-10T03:55:41;102989.14;;;0.65;60.22
70916;BME280;58557;50.982;-3.222;2023-02-10T03:58:06;102995.96;;;-2.35;72.04
70916;BME280;58557;50.982;-3.222;2023-02-10T04:00:31;102997.30;;;-2.85;75.90
70916;BME280;58557;50.982;-3.222;2023-02-10T04:02:57;102999.01;;;-1.01;69.27
70916;BME280;58557;50.982;-3.222;2023-02-10T04:05:22;102993.38;;;-1.48;68.52
70916;BME280;58557;50.982;-3.222;2023-02-10T04:07:47;102986.76;;;-0.64;67.93
70916;BME280;58557;50.982;-3.222;2023-02-10T04:10:12;102987.74;;;0.19;65.33
70916;BME280;58557;50.982;-3.222;2023-02-10T04:12:38;102986.27;;;0.13;64.84
70916;BME280;58557;50.982;-3.222;2023-02-10T04:15:04;102977.27;;;1.21;60.82
70916;BME280;58557;50.982;-3.222;2023-02-10T04:17:28;102974.38;;;1.76;59.18
70916;BME280;58557;50.982;-3.222;2023-02-10T04:19:54;102972.03;;;1.21;60.48
70916;BME280;58557;50.982;-3.222;2023-02-10T04:22:19;102980.01;;;-0.91;66.12
70916;BME280;58557;50.982;-3.222;2023-02-10T04:24:45;102978.35;;;-1.84;69.92
70916;BME280;58557;50.982;-3.222;2023-02-10T04:27:11;102982.36;;;-2.26;73.55
70916;BME280;58557;50.982;-3.222;2023-02-10T04:29:37;102990.21;;;-1.13;72.13
70916;BME280;58557;50.982;-3.222;2023-02-10T04:32:03;102993.20;;;-2.27;75.35
70916;BME280;58557;50.982;-3.222;2023-02-10T04:34:28;102995.43;;;-1.16;74.19
70916;BME280;58557;50.982;-3.222;2023-02-10T04:36:53;102993.85;;;-1.35;73.52
70916;BME280;58557;50.982;-3.222;2023-02-10T04:39:18;102994.05;;;-0.37;67.66
70916;BME280;58557;50.982;-3.222;2023-02-10T04:41:44;102991.64;;;-0.23;64.43
70916;BME280;58557;50.982;-3.222;2023-02-10T04:44:10;102987.89;;;0.61;62.34
70916;BME280;58557;50.982;-3.222;2023-02-10T04:46:36;102997.26;;;-0.06;62.80
70916;BME280;58557;50.982;-3.222;2023-02-10T04:49:01;102996.25;;;0.19;63.42
70916;BME280;58557;50.982;-3.222;2023-02-10T04:51:27;102999.04;;;-0.10;63.77
70916;BME280;58557;50.982;-3.222;2023-02-10T04:53:53;102993.54;;;0.98;58.96
70916;BME280;58557;50.982;-3.222;2023-02-10T04:56:19;103001.08;;;-1.08;64.63
70916;BME280;58557;50.982;-3.222;2023-02-10T04:58:44;102998.46;;;-1.87;69.35
70916;BME280;58557;50.982;-3.222;2023-02-10T05:01:10;103000.94;;;-1.39;70.53
70916;BME280;58557;50.982;-3.222;2023-02-10T05:03:36;103000.44;;;-0.41;68.62
70916;BME280;58557;50.982;-3.222;2023-02-10T05:06:11;102992.96;;;-0.88;67.77
70916;BME280;58557;50.982;-3.222;2023-02-10T05:08:26;102986.10;;;-0.32;65.01
70916;BME280;58557;50.982;-3.222;2023-02-10T05:10:53;102978.30;;;0.16;60.74
70916;BME280;58557;50.982;-3.222;2023-02-10T05:13:18;102981.30;;;0.84;60.00
70916;BME280;58557;50.982;-3.222;2023-02-10T05:15:43;102988.32;;;-0.93;65.18
70916;BME280;58557;50.982;-3.222;2023-02-10T05:18:08;102990.57;;;0.12;64.40
70916;BME280;58557;50.982;-3.222;2023-02-10T05:20:34;102999.01;;;-0.35;64.68
70916;BME280;58557;50.982;-3.222;2023-02-10T05:22:59;103001.52;;;0.54;62.30
70916;BME280;58557;50.982;-3.222;2023-02-10T05:25:25;103004.08;;;0.06;63.17
70916;BME280;58557;50.982;-3.222;2023-02-10T05:27:51;103001.22;;;-1.34;66.99
70916;BME280;58557;50.982;-3.222;2023-02-10T05:30:17;103005.81;;;-2.18;72.93
70916;BME280;58557;50.982;-3.222;2023-02-10T05:32:43;103002.39;;;-2.96;77.26
70916;BME280;58557;50.982;-3.222;2023-02-10T05:35:08;103002.20;;;-2.77;77.00
70916;BME280;58557;50.982;-3.222;2023-02-10T05:37:32;103009.56;;;-2.68;76.81
70916;BME280;58557;50.982;-3.222;2023-02-10T05:39:57;103008.95;;;-2.72;75.96
70916;BME280;58557;50.982;-3.222;2023-02-10T05:42:23;103013.74;;;-2.60;76.47
70916;BME280;58557;50.982;-3.222;2023-02-10T05:44:47;103018.44;;;-2.86;76.88
70916;BME280;58557;50.982;-3.222;2023-02-10T05:47:13;103012.49;;;-1.39;74.56
70916;BME280;58557;50.982;-3.222;2023-02-10T05:49:39;103016.11;;;-0.38;67.19
70916;BME280;58557;50.982;-3.222;2023-02-10T05:52:04;103013.58;;;0.77;63.93
70916;BME280;58557;50.982;-3.222;2023-02-10T05:54:29;103009.72;;;0.99;60.81
70916;BME280;58557;50.982;-3.222;2023-02-10T05:56:54;103016.44;;;-0.18;62.65
70916;BME280;58557;50.982;-3.222;2023-02-10T05:59:19;103017.76;;;-2.50;72.19
70916;BME280;58557;50.982;-3.222;2023-02-10T06:01:44;103018.22;;;-1.94;71.97
70916;BME280;58557;50.982;-3.222;2023-02-10T06:04:10;103024.07;;;-1.90;70.30
70916;BME280;58557;50.982;-3.222;2023-02-10T06:06:35;103031.69;;;-1.96;69.64
70916;BME280;58557;50.982;-3.222;2023-02-10T06:09:00;103030.82;;;-1.39;69.15
70916;BME280;58557;50.982;-3.222;2023-02-10T06:11:26;103032.46;;;-0.92;66.42
70916;BME280;58557;50.982;-3.222;2023-02-10T06:13:52;103031.93;;;0.34;63.17
70916;BME280;58557;50.982;-3.222;2023-02-10T06:16:17;103031.41;;;0.19;61.55
70916;BME280;58557;50.982;-3.222;2023-02-10T06:18:43;103030.97;;;1.16;57.62
70916;BME280;58557;50.982;-3.222;2023-02-10T06:21:08;103034.98;;;-0.91;65.59
70916;BME280;58557;50.982;-3.222;2023-02-10T06:23:35;103037.85;;;-0.42;63.39
70916;BME280;58557;50.982;-3.222;2023-02-10T06:26:01;103034.11;;;-2.42;70.01
70916;BME280;58557;50.982;-3.222;2023-02-10T06:28:27;103032.52;;;-2.49;73.13
70916;BME280;58557;50.982;-3.222;2023-02-10T06:30:51;103027.20;;;-1.63;71.69
70916;BME280;58557;50.982;-3.222;2023-02-10T06:33:17;103027.97;;;-1.77;71.59
70916;BME280;58557;50.982;-3.222;2023-02-10T06:35:42;103034.88;;;-0.25;67.50
70916;BME280;58557;50.982;-3.222;2023-02-10T06:38:07;103030.40;;;-0.36;65.68
70916;BME280;58557;50.982;-3.222;2023-02-10T06:40:33;103027.09;;;-1.54;68.35
70916;BME280;58557;50.982;-3.222;2023-02-10T06:42:58;103029.29;;;-2.30;72.19
70916;BME280;58557;50.982;-3.222;2023-02-10T06:45:23;103024.98;;;-1.76;72.12
70916;BME280;58557;50.982;-3.222;2023-02-10T06:47:49;103018.52;;;-1.12;67.90
70916;BME280;58557;50.982;-3.222;2023-02-10T06:50:14;103020.60;;;-1.94;69.99
70916;BME280;58557;50.982;-3.222;2023-02-10T06:52:39;103020.75;;;-3.24;78.26
70916;BME280;58557;50.982;-3.222;2023-02-10T06:55:06;103022.68;;;-2.11;75.78
70916;BME280;58557;50.982;-3.222;2023-02-10T06:57:30;103024.08;;;-0.80;69.62
70916;BME280;58557;50.982;-3.222;2023-02-10T06:59:55;103025.88;;;-0.17;67.08
70916;BME280;58557;50.982;-3.222;2023-02-10T07:02:21;103025.18;;;-0.44;66.89
70916;BME280;58557;50.982;-3.222;2023-02-10T07:04:47;103025.00;;;1.61;59.38
70916;BME280;58557;50.982;-3.222;2023-02-10T07:07:12;103029.71;;;0.87;62.00
70916;BME280;58557;50.982;-3.222;2023-02-10T07:09:38;103032.49;;;1.01;60.13
70916;BME280;58557;50.982;-3.222;2023-02-10T07:12:03;103034.91;;;1.64;56.68
70916;BME280;58557;50.982;-3.222;2023-02-10T07:14:28;103040.52;;;2.26;56.86
70916;BME280;58557;50.982;-3.222;2023-02-10T07:16:54;103042.71;;;1.70;56.26
70916;BME280;58557;50.982;-3.222;2023-02-10T07:19:20;103039.22;;;2.80;53.85
70916;BME280;58557;50.982;-3.222;2023-02-10T07:21:46;103045.71;;;-0.77;62.98
70916;BME280;58557;50.982;-3.222;2023-02-10T07:24:11;103046.03;;;-1.16;66.58
70916;BME280;58557;50.982;-3.222;2023-02-10T07:26:36;103045.43;;;-1.73;71.01
70916;BME280;58557;50.982;-3.222;2023-02-10T07:29:01;103047.30;;;-1.92;73.14
70916;BME280;58557;50.982;-3.222;2023-02-10T07:31:26;103048.41;;;-1.73;71.77
70916;BME280;58557;50.982;-3.222;2023-02-10T07:33:52;103046.77;;;-0.67;68.60
70916;BME280;58557;50.982;-3.222;2023-02-10T07:36:17;103048.54;;;-1.52;71.37
70916;BME280;58557;50.982;-3.222;2023-02-10T07:38:43;103046.99;;;-1.05;71.80
70916;BME280;58557;50.982;-3.222;2023-02-10T07:41:08;103053.65;;;-0.31;69.55
70916;BME280;58557;50.982;-3.222;2023-02-10T07:43:34;103060.98;;;0.87;66.85
70916;BME280;58557;50.982;-3.222;2023-02-10T07:45:58;103060.98;;;0.08;68.20
70916;BME280;58557;50.982;-3.222;2023-02-10T07:48:24;103060.34;;;-0.04;69.87
70916;BME280;58557;50.982;-3.222;2023-02-10T07:50:49;103066.01;;;0.31;66.92
70916;BME280;58557;50.982;-3.222;2023-02-10T07:53:15;103063.12;;;0.81;67.45
70916;BME280;58557;50.982;-3.222;2023-02-10T07:55:40;103058.46;;;-0.33;70.71
70916;BME280;58557;50.982;-3.222;2023-02-10T07:58:06;103059.00;;;1.94;62.30
70916;BME280;58557;50.982;-3.222;2023-02-10T08:00:31;103060.95;;;2.38;60.17
70916;BME280;58557;50.982;-3.222;2023-02-10T08:02:57;103056.03;;;2.46;59.33
70916;BME280;58557;50.982;-3.222;2023-02-10T08:05:22;103061.38;;;3.59;55.92
70916;BME280;58557;50.982;-3.222;2023-02-10T08:07:48;103066.07;;;3.25;57.52
70916;BME280;58557;50.982;-3.222;2023-02-10T08:10:13;103069.08;;;3.81;55.48
70916;BME280;58557;50.982;-3.222;2023-02-10T08:12:39;103071.38;;;3.83;54.43
70916;BME280;58557;50.982;-3.222;2023-02-10T08:15:06;103071.18;;;4.83;52.60
70916;BME280;58557;50.982;-3.222;2023-02-10T08:17:30;103075.68;;;4.72;51.62
70916;BME280;58557;50.982;-3.222;2023-02-10T08:19:55;103066.37;;;4.05;53.03
70916;BME280;58557;50.982;-3.222;2023-02-10T08:22:21;103064.64;;;2.45;55.56
70916;BME280;58557;50.982;-3.222;2023-02-10T08:24:46;103063.20;;;3.96;52.64
70916;BME280;58557;50.982;-3.222;2023-02-10T08:27:12;103063.33;;;5.20;51.10
70916;BME280;58557;50.982;-3.222;2023-02-10T08:29:38;103062.63;;;4.46;52.31
70916;BME280;58557;50.982;-3.222;2023-02-10T08:32:04;103068.76;;;5.53;50.07
70916;BME280;58557;50.982;-3.222;2023-02-10T08:34:29;103066.41;;;5.85;48.54
70916;BME280;58557;50.982;-3.222;2023-02-10T08:36:54;103072.64;;;6.00;47.89
70916;BME280;58557;50.982;-3.222;2023-02-10T08:39:20;103075.04;;;6.40;47.21
70916;BME280;58557;50.982;-3.222;2023-02-10T08:41:45;103070.21;;;5.57;48.86
70916;BME280;58557;50.982;-3.222;2023-02-10T08:44:11;103072.17;;;7.07;45.85
70916;BME280;58557;50.982;-3.222;2023-02-10T08:46:36;103068.00;;;6.78;46.90
70916;BME280;58557;50.982;-3.222;2023-02-10T08:49:02;103064.30;;;7.30;46.27
70916;BME280;58557;50.982;-3.222;2023-02-10T08:51:27;103064.88;;;7.44;43.62
70916;BME280;58557;50.982;-3.222;2023-02-10T08:53:52;103064.12;;;8.22;43.36
70916;BME280;58557;50.982;-3.222;2023-02-10T08:56:18;103066.90;;;7.93;43.14
70916;BME280;58557;50.982;-3.222;2023-02-10T08:58:44;103071.69;;;6.68;46.01
70916;BME280;58557;50.982;-3.222;2023-02-10T09:01:10;103071.07;;;5.80;48.43
70916;BME280;58557;50.982;-3.222;2023-02-10T09:03:35;103066.14;;;6.52;48.04
70916;BME280;58557;50.982;-3.222;2023-02-10T09:06:00;103063.90;;;7.42;46.21
70916;BME280;58557;50.982;-3.222;2023-02-10T09:08:26;103063.67;;;7.59;45.85
70916;BME280;58557;50.982;-3.222;2023-02-10T09:10:51;103062.87;;;6.78;49.00
70916;BME280;58557;50.982;-3.222;2023-02-10T09:13:16;103061.05;;;7.46;46.03
70916;BME280;58557;50.982;-3.222;2023-02-10T09:15:42;103062.86;;;8.47;45.31
70916;BME280;58557;50.982;-3.222;2023-02-10T09:18:08;103063.87;;;8.40;44.84
70916;BME280;58557;50.982;-3.222;2023-02-10T09:20:32;103061.17;;;8.61;45.30
70916;BME280;58557;50.982;-3.222;2023-02-10T09:22:58;103061.54;;;8.22;45.18
70916;BME280;58557;50.982;-3.222;2023-02-10T09:25:23;103059.04;;;7.15;46.68
70916;BME280;58557;50.982;-3.222;2023-02-10T09:27:51;103058.55;;;6.96;47.70
70916;BME280;58557;50.982;-3.222;2023-02-10T09:30:15;103059.53;;;7.16;48.36
70916;BME280;58557;50.982;-3.222;2023-02-10T09:32:40;103060.91;;;7.88;46.98
70916;BME280;58557;50.982;-3.222;2023-02-10T09:35:06;103063.75;;;7.61;47.31
70916;BME280;58557;50.982;-3.222;2023-02-10T09:37:31;103066.33;;;8.04;47.26
70916;BME280;58557;50.982;-3.222;2023-02-10T09:39:56;103064.38;;;7.47;48.71
70916;BME280;58557;50.982;-3.222;2023-02-10T09:42:28;103058.81;;;8.51;49.29
70916;BME280;58557;50.982;-3.222;2023-02-10T09:44:50;103061.27;;;9.26;48.60
70916;BME280;58557;50.982;-3.222;2023-02-10T09:47:26;103059.71;;;9.07;49.57
70916;BME280;58557;50.982;-3.222;2023-02-10T09:49:45;103058.54;;;9.26;47.53
70916;BME280;58557;50.982;-3.222;2023-02-10T09:52:10;103060.64;;;8.62;47.88
70916;BME280;58557;50.982;-3.222;2023-02-10T09:54:28;103053.02;;;9.61;47.56
70916;BME280;58557;50.982;-3.222;2023-02-10T09:56:54;103055.24;;;9.31;47.26
70916;BME280;58557;50.982;-3.222;2023-02-10T09:59:21;103056.15;;;9.74;46.68
70916;BME280;58557;50.982;-3.222;2023-02-10T10:01:50;103062.65;;;9.58;46.26
70916;BME280;58557;50.982;-3.222;2023-02-10T10:04:14;103059.99;;;9.19;46.91
70916;BME280;58557;50.982;-3.222;2023-02-10T10:06:38;103057.73;;;9.20;47.19
70916;BME280;58557;50.982;-3.222;2023-02-10T10:09:08;103057.15;;;9.60;46.93
70916;BME280;58557;50.982;-3.222;2023-02-10T10:11:35;103054.44;;;10.18;45.23
70916;BME280;58557;50.982;-3.222;2023-02-10T10:13:54;103053.90;;;9.80;46.29
70916;BME280;58557;50.982;-3.222;2023-02-10T10:16:38;103055.60;;;10.73;43.92
70916;BME280;58557;50.982;-3.222;2023-02-10T10:18:51;103055.30;;;10.87;43.42
70916;BME280;58557;50.982;-3.222;2023-02-10T10:21:14;103053.26;;;9.49;46.43
70916;BME280;58557;50.982;-3.222;2023-02-10T10:23:45;103061.93;;;10.37;44.48
70916;BME280;58557;50.982;-3.222;2023-02-10T10:26:08;103064.64;;;10.64;43.57
70916;BME280;58557;50.982;-3.222;2023-02-10T10:28:36;103069.34;;;9.71;45.69
70916;BME280;58557;50.982;-3.222;2023-02-10T10:30:54;103070.88;;;10.34;45.14
70916;BME280;58557;50.982;-3.222;2023-02-10T10:33:22;103074.51;;;10.07;45.87
70916;BME280;58557;50.982;-3.222;2023-02-10T10:35:43;103080.18;;;10.63;44.88
70916;BME280;58557;50.982;-3.222;2023-02-10T10:38:12;103079.02;;;10.26;44.70
70916;BME280;58557;50.982;-3.222;2023-02-10T10:40:32;103079.96;;;10.68;45.66
70916;BME280;58557;50.982;-3.222;2023-02-10T10:42:59;103077.95;;;11.32;44.11
70916;BME280;58557;50.982;-3.222;2023-02-10T10:45:27;103075.58;;;11.30;43.16
70916;BME280;58557;50.982;-3.222;2023-02-10T10:47:54;103077.89;;;9.07;48.42
70916;BME280;58557;50.982;-3.222;2023-02-10T10:50:18;103069.95;;;10.07;45.97
70916;BME280;58557;50.982;-3.222;2023-02-10T10:52:42;103071.63;;;8.73;47.35
70916;BME280;58557;50.982;-3.222;2023-02-10T10:55:13;103070.25;;;9.98;46.26
70916;BME280;58557;50.982;-3.222;2023-02-10T10:57:33;103070.23;;;11.14;45.09
70916;BME280;58557;50.982;-3.222;2023-02-10T11:00:06;103069.13;;;9.87;46.96
70916;BME280;58557;50.982;-3.222;2023-02-10T11:02:24;103066.72;;;10.51;45.91
70916;BME280;58557;50.982;-3.222;2023-02-10T11:07:19;103077.39;;;9.56;47.51
70916;BME280;58557;50.982;-3.222;2023-02-10T11:09:48;103075.50;;;10.34;45.90
70916;BME280;58557;50.982;-3.222;2023-02-10T11:12:15;103077.45;;;9.89;46.97
70916;BME280;58557;50.982;-3.222;2023-02-10T11:14:38;103083.42;;;9.20;47.25
70916;BME280;58557;50.982;-3.222;2023-02-10T11:16:59;103085.84;;;10.06;46.66
70916;BME280;58557;50.982;-3.222;2023-02-10T11:19:26;103088.01;;;11.04;43.85
70916;BME280;58557;50.982;-3.222;2023-02-10T11:21:51;103085.98;;;12.05;43.64
70916;BME280;58557;50.982;-3.222;2023-02-10T11:24:20;103082.50;;;11.34;43.45
70916;BME280;58557;50.982;-3.222;2023-02-10T11:26:52;103077.36;;;9.52;45.69
70916;BME280;58557;50.982;-3.222;2023-02-10T11:29:10;103072.23;;;10.11;45.58
70916;BME280;58557;50.982;-3.222;2023-02-10T11:31:34;103068.96;;;10.59;44.55
70916;BME280;58557;50.982;-3.222;2023-02-10T11:34:02;103069.59;;;11.01;45.63
70916;BME280;58557;50.982;-3.222;2023-02-10T11:36:34;103066.33;;;11.06;44.64
70916;BME280;58557;50.982;-3.222;2023-02-10T11:38:58;103061.77;;;10.41;45.32
70916;BME280;58557;50.982;-3.222;2023-02-10T11:41:17;103063.11;;;9.97;46.81
70916;BME280;58557;50.982;-3.222;2023-02-10T11:43:45;103065.43;;;9.91;47.16
70916;BME280;58557;50.982;-3.222;2023-02-10T11:46:17;103064.39;;;10.92;45.03
70916;BME280;58557;50.982;-3.222;2023-02-10T11:48:34;103063.09;;;11.66;43.96
70916;BME280;58557;50.982;-3.222;2023-02-10T11:51:02;103057.50;;;12.18;42.59
70916;BME280;58557;50.982;-3.222;2023-02-10T11:53:28;103055.87;;;10.18;45.00
70916;BME280;58557;50.982;-3.222;2023-02-10T11:55:57;103055.75;;;11.49;43.68
70916;BME280;58557;50.982;-3.222;2023-02-10T11:58:34;103055.37;;;11.90;43.39
70916;BME280;58557;50.982;-3.222;2023-02-10T12:00:49;103056.56;;;10.50;45.23
70916;BME280;58557;50.982;-3.222;2023-02-10T12:03:28;103051.86;;;10.29;45.80
70916;BME280;58557;50.982;-3.222;2023-02-10T12:05:39;103046.33;;;10.60;46.22
70916;BME280;58557;50.982;-3.222;2023-02-10T12:08:10;103040.30;;;10.99;45.50
70916;BME280;58557;50.982;-3.222;2023-02-10T12:10:30;103034.85;;;11.32;44.57
70916;BME280;58557;50.982;-3.222;2023-02-10T12:12:58;103033.99;;;10.65;46.06
70916;BME280;58557;50.982;-3.222;2023-02-10T12:15:27;103032.66;;;11.58;44.28
70916;BME280;58557;50.982;-3.222;2023-02-10T12:17:51;103034.64;;;11.52;44.58
70916;BME280;58557;50.982;-3.222;2023-02-10T12:20:22;103039.62;;;9.75;47.18
70916;BME280;58557;50.982;-3.222;2023-02-10T12:22:43;103044.55;;;9.49;47.93
70916;BME280;58557;50.982;-3.222;2023-02-10T12:25:06;103047.60;;;10.70;45.80
70916;BME280;58557;50.982;-3.222;2023-02-10T12:27:36;103049.05;;;11.43;45.09
70916;BME280;58557;50.982;-3.222;2023-02-10T12:30:00;103047.45;;;12.77;42.82
70916;BME280;58557;50.982;-3.222;2023-02-10T12:32:27;103048.86;;;13.07;42.19
70916;BME280;58557;50.982;-3.222;2023-02-10T12:34:59;103049.06;;;11.50;44.06
70916;BME280;58557;50.982;-3.222;2023-02-10T12:37:18;103048.38;;;10.72;44.88
70916;BME280;58557;50.982;-3.222;2023-02-10T12:39:39;103047.77;;;11.36;44.15
70916;BME280;58557;50.982;-3.222;2023-02-10T12:42:09;103041.73;;;11.97;44.75